Fayetteville Municipal Airport

About
Name: Fayetteville Municipal Airport
Identifier:  FYM/KFYM
Local Time:  20. Aug 08:50 CDT
Location
Fayetteville
  United States

Flights per Day
0 flights
Distance: 529km (329mi)
Punctuality
50% (0 flights per day delayed)
Delay Average: 15 minutes
Current Weather
 26 C (Humidity: 73%)
  9kt (16km/h / 10mph) from 170°
  16km (10 mi.)
 
 METAR KFYM 201335Z AUTO 17009KT 10SM CLR 26/21 A3010 RMK A01

Current Flights

Departures
Number Departure To Airline
Arrivals
Number Arrival From Airline

Current Delays

Departures
N/A
Arrivals
N/A

Destinations

Top Destinations
Airport Flights
per week
Seats
per week
  Nashville (BNA) 0 - 0 0
  Columbia (MRC) 0 - 0 0
  Smyrna (MQY) 0 - 0 0
  Norfolk (ORF) 0 - 0 0

Airlines & Planes

Top Airlines
Airline Flights
per Day
Seats
per Day
Jet Charter Inc ( Franklin Lakes Nj ) 0 -
  Nolinor Aviation 0 -
Top Plane Types
Model Flights Seats
Beech E55 Baron 0.0/day - 0